sensor_id;sensor_type;location;lat;lon;timestamp;P1;durP1;ratioP1;P2;durP2;ratioP2
17570;SDS011;8903;52.220;20.978;2023-01-31T00:00:25;20.07;;;11.67;;
17570;SDS011;8903;52.220;20.978;2023-01-31T00:02:53;23.33;;;11.33;;
17570;SDS011;8903;52.220;20.978;2023-01-31T00:05:20;17.20;;;11.73;;
17570;SDS011;8903;52.220;20.978;2023-01-31T00:07:47;24.77;;;13.73;;
17570;SDS011;8903;52.220;20.978;2023-01-31T00:10:15;23.70;;;11.23;;
17570;SDS011;8903;52.220;20.978;2023-01-31T00:12:43;17.23;;;10.93;;
17570;SDS011;8903;52.220;20.978;2023-01-31T00:15:11;21.77;;;10.03;;
17570;SDS011;8903;52.220;20.978;2023-01-31T00:17:40;17.63;;;10.67;;
17570;SDS011;8903;52.220;20.978;2023-01-31T00:20:08;18.97;;;11.63;;
17570;SDS011;8903;52.220;20.978;2023-01-31T00:22:35;25.27;;;11.13;;
17570;SDS011;8903;52.220;20.978;2023-01-31T00:25:03;17.83;;;10.43;;
17570;SDS011;8903;52.220;20.978;2023-01-31T00:27:30;15.87;;;10.23;;
17570;SDS011;8903;52.220;20.978;2023-01-31T00:29:59;19.03;;;11.57;;
17570;SDS011;8903;52.220;20.978;2023-01-31T00:32:26;18.40;;;9.40;;
17570;SDS011;8903;52.220;20.978;2023-01-31T00:34:54;16.70;;;11.33;;
17570;SDS011;8903;52.220;20.978;2023-01-31T00:37:21;36.37;;;12.33;;
17570;SDS011;8903;52.220;20.978;2023-01-31T00:39:50;20.03;;;11.73;;
17570;SDS011;8903;52.220;20.978;2023-01-31T00:42:17;18.90;;;10.90;;
17570;SDS011;8903;52.220;20.978;2023-01-31T00:44:45;16.23;;;10.50;;
17570;SDS011;8903;52.220;20.978;2023-01-31T00:47:13;12.70;;;9.63;;
17570;SDS011;8903;52.220;20.978;2023-01-31T00:49:41;19.97;;;11.20;;
17570;SDS011;8903;52.220;20.978;2023-01-31T00:52:08;22.20;;;11.23;;
17570;SDS011;8903;52.220;20.978;2023-01-31T00:54:35;12.10;;;9.10;;
17570;SDS011;8903;52.220;20.978;2023-01-31T00:57:04;22.00;;;10.20;;
17570;SDS011;8903;52.220;20.978;2023-01-31T00:59:31;14.47;;;9.50;;
17570;SDS011;8903;52.220;20.978;2023-01-31T01:01:58;24.40;;;9.97;;
17570;SDS011;8903;52.220;20.978;2023-01-31T01:04:27;16.80;;;10.80;;
17570;SDS011;8903;52.220;20.978;2023-01-31T01:06:54;16.87;;;10.50;;
17570;SDS011;8903;52.220;20.978;2023-01-31T01:09:21;19.07;;;11.77;;
17570;SDS011;8903;52.220;20.978;2023-01-31T01:11:50;23.10;;;10.73;;
17570;SDS011;8903;52.220;20.978;2023-01-31T01:14:17;17.93;;;9.87;;
17570;SDS011;8903;52.220;20.978;2023-01-31T01:16:45;10.60;;;7.90;;
17570;SDS011;8903;52.220;20.978;2023-01-31T01:19:15;14.97;;;9.37;;
17570;SDS011;8903;52.220;20.978;2023-01-31T01:21:47;20.73;;;9.30;;
17570;SDS011;8903;52.220;20.978;2023-01-31T01:24:15;21.80;;;9.70;;
17570;SDS011;8903;52.220;20.978;2023-01-31T01:26:43;26.43;;;11.10;;
17570;SDS011;8903;52.220;20.978;2023-01-31T01:29:11;16.10;;;9.07;;
17570;SDS011;8903;52.220;20.978;2023-01-31T01:31:38;17.30;;;9.93;;
17570;SDS011;8903;52.220;20.978;2023-01-31T01:34:07;24.43;;;11.07;;
17570;SDS011;8903;52.220;20.978;2023-01-31T01:36:37;18.30;;;10.27;;
17570;SDS011;8903;52.220;20.978;2023-01-31T01:39:06;16.37;;;9.47;;
17570;SDS011;8903;52.220;20.978;2023-01-31T01:41:34;12.83;;;9.53;;
17570;SDS011;8903;52.220;20.978;2023-01-31T01:44:02;17.60;;;9.53;;
17570;SDS011;8903;52.220;20.978;2023-01-31T01:46:30;16.47;;;10.10;;
17570;SDS011;8903;52.220;20.978;2023-01-31T01:48:59;15.33;;;9.40;;
17570;SDS011;8903;52.220;20.978;2023-01-31T01:51:27;18.40;;;10.90;;
17570;SDS011;8903;52.220;20.978;2023-01-31T01:53:56;16.63;;;9.27;;
17570;SDS011;8903;52.220;20.978;2023-01-31T01:56:28;14.13;;;9.10;;
17570;SDS011;8903;52.220;20.978;2023-01-31T01:58:59;23.23;;;10.17;;
17570;SDS011;8903;52.220;20.978;2023-01-31T02:01:28;21.60;;;10.10;;
17570;SDS011;8903;52.220;20.978;2023-01-31T02:03:56;18.93;;;9.97;;
17570;SDS011;8903;52.220;20.978;2023-01-31T02:06:24;23.63;;;10.10;;
17570;SDS011;8903;52.220;20.978;2023-01-31T02:08:51;17.53;;;9.90;;
17570;SDS011;8903;52.220;20.978;2023-01-31T02:11:20;14.30;;;9.87;;
17570;SDS011;8903;52.220;20.978;2023-01-31T02:13:51;13.40;;;9.20;;
17570;SDS011;8903;52.220;20.978;2023-01-31T02:16:19;19.67;;;9.90;;
17570;SDS011;8903;52.220;20.978;2023-01-31T02:18:47;12.57;;;8.07;;
17570;SDS011;8903;52.220;20.978;2023-01-31T02:27:04;13.80;;;8.73;;
17570;SDS011;8903;52.220;20.978;2023-01-31T02:29:47;25.17;;;8.53;;
17570;SDS011;8903;52.220;20.978;2023-01-31T02:32:22;25.97;;;9.70;;
17570;SDS011;8903;52.220;20.978;2023-01-31T02:34:57;17.50;;;8.13;;
17570;SDS011;8903;52.220;20.978;2023-01-31T02:37:32;13.63;;;8.70;;
17570;SDS011;8903;52.220;20.978;2023-01-31T02:40:03;15.20;;;8.10;;
17570;SDS011;8903;52.220;20.978;2023-01-31T02:42:33;18.43;;;7.10;;
17570;SDS011;8903;52.220;20.978;2023-01-31T02:45:04;15.57;;;8.47;;
17570;SDS011;8903;52.220;20.978;2023-01-31T02:47:42;15.73;;;8.10;;
17570;SDS011;8903;52.220;20.978;2023-01-31T02:50:16;17.83;;;6.50;;
17570;SDS011;8903;52.220;20.978;2023-01-31T02:52:47;14.90;;;7.40;;
17570;SDS011;8903;52.220;20.978;2023-01-31T02:55:17;16.50;;;8.10;;
17570;SDS011;8903;52.220;20.978;2023-01-31T02:58:03;12.93;;;7.17;;
17570;SDS011;8903;52.220;20.978;2023-01-31T03:00:32;25.77;;;7.77;;
17570;SDS011;8903;52.220;20.978;2023-01-31T03:03:03;11.87;;;6.50;;
17570;SDS011;8903;52.220;20.978;2023-01-31T03:05:31;15.77;;;6.87;;
17570;SDS011;8903;52.220;20.978;2023-01-31T03:07:58;13.47;;;6.83;;
17570;SDS011;8903;52.220;20.978;2023-01-31T03:10:32;22.90;;;6.67;;
17570;SDS011;8903;52.220;20.978;2023-01-31T03:13:04;18.63;;;7.30;;
17570;SDS011;8903;52.220;20.978;2023-01-31T03:15:36;14.10;;;6.90;;
17570;SDS011;8903;52.220;20.978;2023-01-31T03:18:24;18.70;;;6.93;;
17570;SDS011;8903;52.220;20.978;2023-01-31T03:20:54;19.57;;;6.57;;
17570;SDS011;8903;52.220;20.978;2023-01-31T03:23:25;18.10;;;6.13;;
17570;SDS011;8903;52.220;20.978;2023-01-31T03:25:55;18.03;;;6.27;;
17570;SDS011;8903;52.220;20.978;2023-01-31T03:28:25;14.73;;;5.93;;
17570;SDS011;8903;52.220;20.978;2023-01-31T03:30:55;16.73;;;6.37;;
17570;SDS011;8903;52.220;20.978;2023-01-31T03:33:28;20.67;;;5.50;;
17570;SDS011;8903;52.220;20.978;2023-01-31T03:35:58;22.27;;;6.27;;
17570;SDS011;8903;52.220;20.978;2023-01-31T03:38:30;13.03;;;5.47;;
17570;SDS011;8903;52.220;20.978;2023-01-31T03:41:01;13.63;;;4.53;;
17570;SDS011;8903;52.220;20.978;2023-01-31T03:43:32;10.63;;;5.13;;
17570;SDS011;8903;52.220;20.978;2023-01-31T03:46:04;15.50;;;6.00;;
17570;SDS011;8903;52.220;20.978;2023-01-31T03:48:36;12.17;;;5.83;;
17570;SDS011;8903;52.220;20.978;2023-01-31T03:51:05;19.00;;;5.30;;
17570;SDS011;8903;52.220;20.978;2023-01-31T03:53:34;20.20;;;4.70;;
17570;SDS011;8903;52.220;20.978;2023-01-31T03:56:03;17.30;;;6.97;;
17570;SDS011;8903;52.220;20.978;2023-01-31T03:58:33;15.97;;;5.20;;
17570;SDS011;8903;52.220;20.978;2023-01-31T04:01:03;8.93;;;4.67;;
17570;SDS011;8903;52.220;20.978;2023-01-31T04:03:35;16.83;;;5.37;;
17570;SDS011;8903;52.220;20.978;2023-01-31T04:06:03;17.77;;;5.80;;
17570;SDS011;8903;52.220;20.978;2023-01-31T04:08:31;15.47;;;4.00;;
17570;SDS011;8903;52.220;20.978;2023-01-31T04:11:03;17.83;;;4.97;;
17570;SDS011;8903;52.220;20.978;2023-01-31T04:13:30;14.70;;;3.70;;
17570;SDS011;8903;52.220;20.978;2023-01-31T04:15:58;26.97;;;5.63;;
17570;SDS011;8903;52.220;20.978;2023-01-31T04:18:25;16.03;;;4.87;;
17570;SDS011;8903;52.220;20.978;2023-01-31T04:20:54;16.10;;;5.53;;
17570;SDS011;8903;52.220;20.978;2023-01-31T04:23:21;22.60;;;5.30;;
17570;SDS011;8903;52.220;20.978;2023-01-31T04:25:51;15.60;;;3.93;;
17570;SDS011;8903;52.220;20.978;2023-01-31T04:28:19;20.83;;;4.30;;
17570;SDS011;8903;52.220;20.978;2023-01-31T04:30:50;10.90;;;4.67;;
17570;SDS011;8903;52.220;20.978;2023-01-31T04:33:17;14.27;;;4.33;;
17570;SDS011;8903;52.220;20.978;2023-01-31T04:35:45;15.77;;;4.57;;
17570;SDS011;8903;52.220;20.978;2023-01-31T04:38:13;15.17;;;5.20;;
17570;SDS011;8903;52.220;20.978;2023-01-31T04:40:41;12.70;;;3.77;;
17570;SDS011;8903;52.220;20.978;2023-01-31T04:43:08;23.80;;;4.67;;
17570;SDS011;8903;52.220;20.978;2023-01-31T04:45:36;14.27;;;4.10;;
17570;SDS011;8903;52.220;20.978;2023-01-31T04:48:04;12.50;;;4.43;;
17570;SDS011;8903;52.220;20.978;2023-01-31T04:50:31;11.70;;;4.13;;
17570;SDS011;8903;52.220;20.978;2023-01-31T04:52:58;19.87;;;5.07;;
17570;SDS011;8903;52.220;20.978;2023-01-31T04:55:27;16.40;;;4.60;;
17570;SDS011;8903;52.220;20.978;2023-01-31T04:57:54;10.83;;;3.20;;
17570;SDS011;8903;52.220;20.978;2023-01-31T05:00:22;18.93;;;4.03;;
17570;SDS011;8903;52.220;20.978;2023-01-31T05:02:49;20.57;;;4.00;;
17570;SDS011;8903;52.220;20.978;2023-01-31T05:05:17;9.70;;;3.50;;
17570;SDS011;8903;52.220;20.978;2023-01-31T05:07:44;15.20;;;4.50;;
17570;SDS011;8903;52.220;20.978;2023-01-31T05:10:12;14.50;;;3.73;;
17570;SDS011;8903;52.220;20.978;2023-01-31T05:12:41;23.23;;;4.97;;
17570;SDS011;8903;52.220;20.978;2023-01-31T05:15:09;20.23;;;4.43;;
17570;SDS011;8903;52.220;20.978;2023-01-31T05:17:37;14.27;;;3.60;;
17570;SDS011;8903;52.220;20.978;2023-01-31T05:20:04;20.20;;;4.77;;
17570;SDS011;8903;52.220;20.978;2023-01-31T05:22:32;13.20;;;3.80;;
17570;SDS011;8903;52.220;20.978;2023-01-31T05:24:59;13.40;;;3.90;;
17570;SDS011;8903;52.220;20.978;2023-01-31T05:27:27;15.93;;;3.90;;
17570;SDS011;8903;52.220;20.978;2023-01-31T05:29:55;25.80;;;4.70;;
17570;SDS011;8903;52.220;20.978;2023-01-31T05:32:25;15.77;;;4.07;;
17570;SDS011;8903;52.220;20.978;2023-01-31T05:34:52;11.43;;;3.90;;
17570;SDS011;8903;52.220;20.978;2023-01-31T05:37:19;17.13;;;4.93;;
17570;SDS011;8903;52.220;20.978;2023-01-31T05:39:46;18.67;;;4.30;;
17570;SDS011;8903;52.220;20.978;2023-01-31T05:42:14;18.50;;;3.97;;
17570;SDS011;8903;52.220;20.978;2023-01-31T05:44:41;11.70;;;3.70;;
17570;SDS011;8903;52.220;20.978;2023-01-31T05:47:10;16.73;;;3.87;;
17570;SDS011;8903;52.220;20.978;2023-01-31T05:49:37;15.10;;;4.63;;
17570;SDS011;8903;52.220;20.978;2023-01-31T05:52:05;12.67;;;3.37;;
17570;SDS011;8903;52.220;20.978;2023-01-31T05:54:32;24.47;;;5.47;;
17570;SDS011;8903;52.220;20.978;2023-01-31T05:56:59;16.83;;;3.60;;
17570;SDS011;8903;52.220;20.978;2023-01-31T05:59:27;13.00;;;3.27;;
17570;SDS011;8903;52.220;20.978;2023-01-31T06:01:56;15.97;;;4.60;;
17570;SDS011;8903;52.220;20.978;2023-01-31T06:04:25;6.97;;;3.00;;
17570;SDS011;8903;52.220;20.978;2023-01-31T06:06:52;16.17;;;3.57;;
17570;SDS011;8903;52.220;20.978;2023-01-31T06:09:19;14.17;;;3.13;;
17570;SDS011;8903;52.220;20.978;2023-01-31T06:11:47;14.87;;;3.87;;
17570;SDS011;8903;52.220;20.978;2023-01-31T06:14:14;17.20;;;3.93;;
17570;SDS011;8903;52.220;20.978;2023-01-31T06:16:41;14.10;;;3.90;;
17570;SDS011;8903;52.220;20.978;2023-01-31T06:19:08;13.80;;;3.73;;
17570;SDS011;8903;52.220;20.978;2023-01-31T06:21:37;9.33;;;3.10;;
17570;SDS011;8903;52.220;20.978;2023-01-31T06:24:05;9.50;;;2.57;;
17570;SDS011;8903;52.220;20.978;2023-01-31T06:26:32;8.40;;;3.43;;
17570;SDS011;8903;52.220;20.978;2023-01-31T06:29:00;12.47;;;2.83;;
17570;SDS011;8903;52.220;20.978;2023-01-31T06:31:27;15.50;;;4.27;;
17570;SDS011;8903;52.220;20.978;2023-01-31T06:33:54;19.27;;;4.27;;
17570;SDS011;8903;52.220;20.978;2023-01-31T06:36:23;15.63;;;2.97;;
17570;SDS011;8903;52.220;20.978;2023-01-31T06:38:51;23.07;;;4.37;;
17570;SDS011;8903;52.220;20.978;2023-01-31T06:41:19;15.70;;;4.80;;
17570;SDS011;8903;52.220;20.978;2023-01-31T06:43:46;10.73;;;3.80;;
17570;SDS011;8903;52.220;20.978;2023-01-31T06:46:13;18.20;;;4.23;;
17570;SDS011;8903;52.220;20.978;2023-01-31T06:48:40;8.50;;;3.60;;
17570;SDS011;8903;52.220;20.978;2023-01-31T06:51:08;18.20;;;4.60;;
17570;SDS011;8903;52.220;20.978;2023-01-31T06:53:35;10.23;;;4.00;;
17570;SDS011;8903;52.220;20.978;2023-01-31T06:56:04;11.50;;;3.33;;
17570;SDS011;8903;52.220;20.978;2023-01-31T06:58:32;16.43;;;3.53;;
17570;SDS011;8903;52.220;20.978;2023-01-31T07:01:02;9.20;;;3.93;;
17570;SDS011;8903;52.220;20.978;2023-01-31T07:03:29;20.33;;;4.30;;
17570;SDS011;8903;52.220;20.978;2023-01-31T07:05:57;12.10;;;3.53;;
17570;SDS011;8903;52.220;20.978;2023-01-31T07:08:24;11.77;;;3.50;;
17570;SDS011;8903;52.220;20.978;2023-01-31T07:10:51;21.70;;;4.60;;
17570;SDS011;8903;52.220;20.978;2023-01-31T07:13:20;10.43;;;4.17;;
17570;SDS011;8903;52.220;20.978;2023-01-31T07:15:47;9.67;;;3.30;;
17570;SDS011;8903;52.220;20.978;2023-01-31T07:18:15;19.67;;;4.23;;
17570;SDS011;8903;52.220;20.978;2023-01-31T07:20:42;12.67;;;3.40;;
17570;SDS011;8903;52.220;20.978;2023-01-31T07:23:09;13.63;;;3.70;;
17570;SDS011;8903;52.220;20.978;2023-01-31T07:25:37;14.53;;;2.53;;
17570;SDS011;8903;52.220;20.978;2023-01-31T07:28:04;5.87;;;3.00;;
17570;SDS011;8903;52.220;20.978;2023-01-31T07:30:33;12.47;;;4.00;;
17570;SDS011;8903;52.220;20.978;2023-01-31T07:33:00;9.33;;;4.47;;
17570;SDS011;8903;52.220;20.978;2023-01-31T07:35:27;10.67;;;3.37;;
17570;SDS011;8903;52.220;20.978;2023-01-31T07:37:55;12.57;;;4.57;;
17570;SDS011;8903;52.220;20.978;2023-01-31T07:40:22;18.80;;;3.77;;
17570;SDS011;8903;52.220;20.978;2023-01-31T07:42:49;17.93;;;3.90;;
17570;SDS011;8903;52.220;20.978;2023-01-31T07:45:17;13.57;;;3.13;;
17570;SDS011;8903;52.220;20.978;2023-01-31T07:47:45;5.10;;;2.03;;
17570;SDS011;8903;52.220;20.978;2023-01-31T07:50:13;12.37;;;3.70;;
17570;SDS011;8903;52.220;20.978;2023-01-31T07:52:40;7.40;;;3.70;;
17570;SDS011;8903;52.220;20.978;2023-01-31T07:55:07;12.53;;;2.80;;
17570;SDS011;8903;52.220;20.978;2023-01-31T07:57:35;12.70;;;3.57;;
17570;SDS011;8903;52.220;20.978;2023-01-31T08:00:02;16.03;;;3.43;;
17570;SDS011;8903;52.220;20.978;2023-01-31T08:02:51;15.20;;;3.70;;
17570;SDS011;8903;52.220;20.978;2023-01-31T08:05:36;6.90;;;3.30;;
17570;SDS011;8903;52.220;20.978;2023-01-31T08:08:03;14.00;;;3.10;;
17570;SDS011;8903;52.220;20.978;2023-01-31T08:10:35;11.33;;;2.70;;
17570;SDS011;8903;52.220;20.978;2023-01-31T08:13:02;22.83;;;4.63;;
17570;SDS011;8903;52.220;20.978;2023-01-31T08:15:33;12.83;;;3.23;;
17570;SDS011;8903;52.220;20.978;2023-01-31T08:18:04;13.00;;;3.83;;
17570;SDS011;8903;52.220;20.978;2023-01-31T08:20:31;13.03;;;3.63;;
17570;SDS011;8903;52.220;20.978;2023-01-31T08:23:01;9.40;;;3.77;;
17570;SDS011;8903;52.220;20.978;2023-01-31T08:25:29;12.97;;;4.23;;
17570;SDS011;8903;52.220;20.978;2023-01-31T08:28:00;5.73;;;2.77;;
17570;SDS011;8903;52.220;20.978;2023-01-31T08:30:28;11.27;;;3.20;;
17570;SDS011;8903;52.220;20.978;2023-01-31T08:33:01;11.63;;;4.50;;
17570;SDS011;8903;52.220;20.978;2023-01-31T08:35:29;8.13;;;2.80;;
17570;SDS011;8903;52.220;20.978;2023-01-31T08:37:57;16.70;;;4.37;;
17570;SDS011;8903;52.220;20.978;2023-01-31T08:40:24;12.07;;;3.57;;
17570;SDS011;8903;52.220;20.978;2023-01-31T08:42:54;19.30;;;4.20;;
17570;SDS011;8903;52.220;20.978;2023-01-31T08:45:22;11.33;;;3.50;;
17570;SDS011;8903;52.220;20.978;2023-01-31T08:47:51;12.63;;;3.40;;
17570;SDS011;8903;52.220;20.978;2023-01-31T08:50:19;9.40;;;3.40;;
17570;SDS011;8903;52.220;20.978;2023-01-31T08:52:52;11.53;;;3.77;;
17570;SDS011;8903;52.220;20.978;2023-01-31T08:55:19;16.03;;;3.50;;
17570;SDS011;8903;52.220;20.978;2023-01-31T08:57:47;15.00;;;3.90;;
17570;SDS011;8903;52.220;20.978;2023-01-31T09:00:15;12.23;;;3.93;;
17570;SDS011;8903;52.220;20.978;2023-01-31T09:02:42;14.93;;;4.53;;
17570;SDS011;8903;52.220;20.978;2023-01-31T09:05:11;12.13;;;3.27;;
17570;SDS011;8903;52.220;20.978;2023-01-31T09:07:38;20.90;;;4.73;;
17570;SDS011;8903;52.220;20.978;2023-01-31T09:10:07;12.20;;;4.50;;
17570;SDS011;8903;52.220;20.978;2023-01-31T09:12:34;23.70;;;4.27;;
17570;SDS011;8903;52.220;20.978;2023-01-31T09:15:02;8.90;;;3.40;;
17570;SDS011;8903;52.220;20.978;2023-01-31T09:17:29;13.83;;;4.60;;
17570;SDS011;8903;52.220;20.978;2023-01-31T09:19:57;13.63;;;4.40;;
17570;SDS011;8903;52.220;20.978;2023-01-31T09:22:24;10.97;;;4.60;;
17570;SDS011;8903;52.220;20.978;2023-01-31T09:24:51;14.60;;;4.10;;
17570;SDS011;8903;52.220;20.978;2023-01-31T09:27:20;6.53;;;3.00;;
17570;SDS011;8903;52.220;20.978;2023-01-31T09:29:47;12.50;;;3.53;;
17570;SDS011;8903;52.220;20.978;2023-01-31T09:32:14;9.53;;;3.47;;
17570;SDS011;8903;52.220;20.978;2023-01-31T09:34:42;14.07;;;3.70;;
17570;SDS011;8903;52.220;20.978;2023-01-31T09:37:11;9.53;;;4.30;;
17570;SDS011;8903;52.220;20.978;2023-01-31T09:39:39;9.70;;;3.20;;
17570;SDS011;8903;52.220;20.978;2023-01-31T09:42:09;8.70;;;3.03;;
17570;SDS011;8903;52.220;20.978;2023-01-31T09:44:41;7.97;;;2.83;;
17570;SDS011;8903;52.220;20.978;2023-01-31T09:47:11;7.50;;;2.80;;
17570;SDS011;8903;52.220;20.978;2023-01-31T09:49:42;9.03;;;2.80;;
17570;SDS011;8903;52.220;20.978;2023-01-31T09:52:10;12.47;;;3.80;;
17570;SDS011;8903;52.220;20.978;2023-01-31T09:54:38;8.33;;;3.60;;
17570;SDS011;8903;52.220;20.978;2023-01-31T09:57:08;6.70;;;2.40;;
17570;SDS011;8903;52.220;20.978;2023-01-31T09:59:44;7.50;;;4.07;;
17570;SDS011;8903;52.220;20.978;2023-01-31T10:02:20;8.13;;;3.53;;
17570;SDS011;8903;52.220;20.978;2023-01-31T10:05:01;8.87;;;3.07;;
17570;SDS011;8903;52.220;20.978;2023-01-31T10:07:31;13.43;;;4.67;;
17570;SDS011;8903;52.220;20.978;2023-01-31T10:10:02;8.73;;;3.20;;
17570;SDS011;8903;52.220;20.978;2023-01-31T10:12:32;8.90;;;3.20;;
17570;SDS011;8903;52.220;20.978;2023-01-31T10:15:05;8.87;;;4.40;;
17570;SDS011;8903;52.220;20.978;2023-01-31T10:17:38;12.07;;;3.63;;
17570;SDS011;8903;52.220;20.978;2023-01-31T10:20:07;12.77;;;5.27;;
17570;SDS011;8903;52.220;20.978;2023-01-31T10:22:37;8.83;;;3.50;;
17570;SDS011;8903;52.220;20.978;2023-01-31T10:25:07;11.57;;;2.80;;
17570;SDS011;8903;52.220;20.978;2023-01-31T10:27:43;8.47;;;3.10;;
17570;SDS011;8903;52.220;20.978;2023-01-31T10:30:15;15.53;;;4.30;;
17570;SDS011;8903;52.220;20.978;2023-01-31T10:32:44;9.93;;;3.07;;
17570;SDS011;8903;52.220;20.978;2023-01-31T10:35:14;12.47;;;3.73;;
17570;SDS011;8903;52.220;20.978;2023-01-31T10:37:42;9.50;;;3.70;;
17570;SDS011;8903;52.220;20.978;2023-01-31T10:40:13;10.50;;;3.03;;
17570;SDS011;8903;52.220;20.978;2023-01-31T10:42:41;10.57;;;2.90;;
17570;SDS011;8903;52.220;20.978;2023-01-31T10:45:12;12.73;;;4.07;;
17570;SDS011;8903;52.220;20.978;2023-01-31T10:47:46;12.83;;;4.10;;
17570;SDS011;8903;52.220;20.978;2023-01-31T10:50:15;8.33;;;3.00;;
17570;SDS011;8903;52.220;20.978;2023-01-31T10:52:51;7.57;;;2.97;;
17570;SDS011;8903;52.220;20.978;2023-01-31T10:55:25;14.47;;;3.23;;
17570;SDS011;8903;52.220;20.978;2023-01-31T10:57:55;8.17;;;3.07;;
17570;SDS011;8903;52.220;20.978;2023-01-31T11:00:25;7.70;;;2.80;;
17570;SDS011;8903;52.220;20.978;2023-01-31T11:02:55;5.70;;;3.00;;
17570;SDS011;8903;52.220;20.978;2023-01-31T11:05:23;7.10;;;3.73;;
17570;SDS011;8903;52.220;20.978;2023-01-31T11:07:51;6.30;;;2.90;;
17570;SDS011;8903;52.220;20.978;2023-01-31T11:10:19;13.17;;;3.63;;
17570;SDS011;8903;52.220;20.978;2023-01-31T11:12:51;7.40;;;3.00;;
17570;SDS011;8903;52.220;20.978;2023-01-31T11:15:19;5.53;;;3.00;;
17570;SDS011;8903;52.220;20.978;2023-01-31T11:17:46;10.80;;;3.80;;
17570;SDS011;8903;52.220;20.978;2023-01-31T11:22:47;9.93;;;3.03;;
17570;SDS011;8903;52.220;20.978;2023-01-31T11:25:16;13.33;;;2.87;;
17570;SDS011;8903;52.220;20.978;2023-01-31T11:27:44;7.13;;;2.73;;
17570;SDS011;8903;52.220;20.978;2023-01-31T11:30:18;8.73;;;3.03;;
17570;SDS011;8903;52.220;20.978;2023-01-31T11:32:46;10.27;;;2.60;;
17570;SDS011;8903;52.220;20.978;2023-01-31T11:35:21;6.87;;;2.63;;
17570;SDS011;8903;52.220;20.978;2023-01-31T11:37:51;12.23;;;3.30;;
17570;SDS011;8903;52.220;20.978;2023-01-31T11:40:20;9.07;;;2.60;;
17570;SDS011;8903;52.220;20.978;2023-01-31T11:42:51;5.57;;;2.93;;
17570;SDS011;8903;52.220;20.978;2023-01-31T11:45:19;4.47;;;2.17;;
17570;SDS011;8903;52.220;20.978;2023-01-31T11:47:48;6.47;;;2.90;;
17570;SDS011;8903;52.220;20.978;2023-01-31T11:50:19;9.67;;;2.80;;
17570;SDS011;8903;52.220;20.978;2023-01-31T11:52:53;8.30;;;2.83;;
17570;SDS011;8903;52.220;20.978;2023-01-31T11:55:21;12.80;;;4.00;;
17570;SDS011;8903;52.220;20.978;2023-01-31T11:57:52;4.63;;;1.63;;
17570;SDS011;8903;52.220;20.978;2023-01-31T12:00:20;5.63;;;2.30;;
17570;SDS011;8903;52.220;20.978;2023-01-31T12:02:50;8.43;;;3.53;;
17570;SDS011;8903;52.220;20.978;2023-01-31T12:05:19;10.30;;;3.50;;
17570;SDS011;8903;52.220;20.978;2023-01-31T12:07:47;8.60;;;3.03;;
17570;SDS011;8903;52.220;20.978;2023-01-31T12:10:26;11.30;;;3.30;;
17570;SDS011;8903;52.220;20.978;2023-01-31T12:12:55;7.57;;;3.03;;
17570;SDS011;8903;52.220;20.978;2023-01-31T12:15:24;11.87;;;2.90;;
17570;SDS011;8903;52.220;20.978;2023-01-31T12:17:52;12.83;;;4.20;;
17570;SDS011;8903;52.220;20.978;2023-01-31T12:20:27;5.13;;;2.47;;
17570;SDS011;8903;52.220;20.978;2023-01-31T12:23:05;10.83;;;3.37;;
17570;SDS011;8903;52.220;20.978;2023-01-31T12:25:39;9.47;;;3.27;;
17570;SDS011;8903;52.220;20.978;2023-01-31T12:28:09;21.43;;;4.63;;
17570;SDS011;8903;52.220;20.978;2023-01-31T12:30:51;7.57;;;3.70;;
17570;SDS011;8903;52.220;20.978;2023-01-31T12:36:09;11.30;;;5.03;;
17570;SDS011;8903;52.220;20.978;2023-01-31T12:38:42;9.93;;;4.27;;
17570;SDS011;8903;52.220;20.978;2023-01-31T12:41:18;8.60;;;4.20;;
17570;SDS011;8903;52.220;20.978;2023-01-31T12:43:52;6.30;;;3.73;;
17570;SDS011;8903;52.220;20.978;2023-01-31T12:46:24;15.97;;;4.00;;
17570;SDS011;8903;52.220;20.978;2023-01-31T12:49:01;11.80;;;4.20;;
17570;SDS011;8903;52.220;20.978;2023-01-31T12:51:35;7.20;;;3.30;;
17570;SDS011;8903;52.220;20.978;2023-01-31T12:54:10;6.13;;;3.60;;
17570;SDS011;8903;52.220;20.978;2023-01-31T12:56:50;10.33;;;3.77;;
17570;SDS011;8903;52.220;20.978;2023-01-31T12:59:24;9.00;;;2.90;;
17570;SDS011;8903;52.220;20.978;2023-01-31T13:01:54;11.60;;;3.67;;
17570;SDS011;8903;52.220;20.978;2023-01-31T13:04:27;17.67;;;4.03;;
17570;SDS011;8903;52.220;20.978;2023-01-31T13:06:57;6.90;;;3.20;;
17570;SDS011;8903;52.220;20.978;2023-01-31T13:09:25;8.97;;;2.20;;
17570;SDS011;8903;52.220;20.978;2023-01-31T13:11:57;9.90;;;2.77;;
17570;SDS011;8903;52.220;20.978;2023-01-31T13:14:26;10.10;;;3.30;;
17570;SDS011;8903;52.220;20.978;2023-01-31T13:16:55;7.37;;;2.33;;
17570;SDS011;8903;52.220;20.978;2023-01-31T13:19:26;2.73;;;2.37;;
17570;SDS011;8903;52.220;20.978;2023-01-31T13:21:56;7.07;;;2.70;;
17570;SDS011;8903;52.220;20.978;2023-01-31T13:24:25;15.10;;;3.20;;
17570;SDS011;8903;52.220;20.978;2023-01-31T13:26:54;6.83;;;3.83;;
17570;SDS011;8903;52.220;20.978;2023-01-31T13:29:24;6.20;;;2.10;;
17570;SDS011;8903;52.220;20.978;2023-01-31T13:31:56;6.90;;;3.20;;
17570;SDS011;8903;52.220;20.978;2023-01-31T13:34:25;9.60;;;2.83;;
17570;SDS011;8903;52.220;20.978;2023-01-31T13:36:55;6.67;;;3.00;;
17570;SDS011;8903;52.220;20.978;2023-01-31T13:39:25;11.67;;;2.87;;
17570;SDS011;8903;52.220;20.978;2023-01-31T13:41:54;3.80;;;2.40;;
17570;SDS011;8903;52.220;20.978;2023-01-31T13:44:21;5.20;;;3.03;;
17570;SDS011;8903;52.220;20.978;2023-01-31T13:46:50;6.20;;;2.77;;
17570;SDS011;8903;52.220;20.978;2023-01-31T13:49:20;6.83;;;3.20;;
17570;SDS011;8903;52.220;20.978;2023-01-31T13:51:51;9.13;;;3.07;;
17570;SDS011;8903;52.220;20.978;2023-01-31T13:54:21;7.20;;;2.87;;
17570;SDS011;8903;52.220;20.978;2023-01-31T13:56:50;9.07;;;3.13;;
17570;SDS011;8903;52.220;20.978;2023-01-31T13:59:19;5.90;;;3.77;;
17570;SDS011;8903;52.220;20.978;2023-01-31T14:01:47;8.03;;;4.20;;
17570;SDS011;8903;52.220;20.978;2023-01-31T14:04:27;9.07;;;4.70;;
17570;SDS011;8903;52.220;20.978;2023-01-31T14:06:56;6.00;;;3.30;;
17570;SDS011;8903;52.220;20.978;2023-01-31T14:09:27;6.23;;;3.63;;
17570;SDS011;8903;52.220;20.978;2023-01-31T14:11:55;17.20;;;4.13;;
17570;SDS011;8903;52.220;20.978;2023-01-31T14:14:28;9.70;;;3.83;;
17570;SDS011;8903;52.220;20.978;2023-01-31T14:17:03;10.07;;;4.90;;
17570;SDS011;8903;52.220;20.978;2023-01-31T14:22:21;6.10;;;4.00;;
17570;SDS011;8903;52.220;20.978;2023-01-31T14:24:54;11.20;;;4.40;;
17570;SDS011;8903;52.220;20.978;2023-01-31T14:27:25;11.80;;;4.60;;
17570;SDS011;8903;52.220;20.978;2023-01-31T14:29:55;12.20;;;4.10;;
17570;SDS011;8903;52.220;20.978;2023-01-31T14:32:24;15.37;;;4.70;;
17570;SDS011;8903;52.220;20.978;2023-01-31T14:34:55;11.57;;;4.90;;
17570;SDS011;8903;52.220;20.978;2023-01-31T14:37:29;10.80;;;3.40;;
17570;SDS011;8903;52.220;20.978;2023-01-31T14:40:04;6.00;;;4.40;;
17570;SDS011;8903;52.220;20.978;2023-01-31T14:42:42;10.57;;;3.87;;
17570;SDS011;8903;52.220;20.978;2023-01-31T14:45:38;11.83;;;5.23;;
17570;SDS011;8903;52.220;20.978;2023-01-31T14:48:13;9.23;;;4.30;;
17570;SDS011;8903;52.220;20.978;2023-01-31T14:50:46;10.27;;;4.00;;
17570;SDS011;8903;52.220;20.978;2023-01-31T14:56:11;15.37;;;4.43;;
17570;SDS011;8903;52.220;20.978;2023-01-31T14:58:42;13.90;;;5.13;;
17570;SDS011;8903;52.220;20.978;2023-01-31T15:01:09;7.27;;;4.00;;
17570;SDS011;8903;52.220;20.978;2023-01-31T15:03:38;10.27;;;4.67;;
17570;SDS011;8903;52.220;20.978;2023-01-31T15:06:13;12.03;;;3.60;;